Time;durP1;ratioP1;P1;durP2;ratioP2;P2;SDS_P1;SDS_P2;PMS_P1;PMS_P2;Temp;Humidity;BMP_temperature;BMP_pressure;BME280_temperature;BME280_humidity;BME280_pressure;Samples;Min_cycle;Max_cycle;Signal;HPM_P1;HPM_P2
2022/01/07 00:33:09;;;;;;;11.05;3.53;;;4.50;99.90;;;;;;5036375;28;20025;-86
2022/01/07 00:46:40;;;;;;;10.90;3.80;;;4.40;99.90;;;;;;5035920;28;20018;-85
2022/01/07 00:52:41;;;;;;;12.95;3.72;;;4.40;99.90;;;;;;5035599;28;20026;-85
2022/01/07 00:58:49;;;;;;;13.82;4.55;;;4.30;99.90;;;;;;5035476;28;20033;-85
2022/01/07 01:04:59;;;;;;;12.02;4.07;;;4.30;99.90;;;;;;5035095;28;20044;-85
2022/01/07 01:10:52;;;;;;;12.48;4.10;;;4.20;99.90;;;;;;5035223;28;20068;-85
2022/01/07 01:17:01;;;;;;;11.13;4.50;;;4.20;99.90;;;;;;5035107;28;20444;-85
2022/01/07 02:03:59;;;;;;;8.93;4.60;;;3.80;99.90;;;;;;5035309;28;20022;-86
2022/01/07 02:09:47;;;;;;;13.25;5.10;;;3.70;99.90;;;;;;5034046;28;20064;-84
2022/01/07 02:15:37;;;;;;;11.82;4.07;;;3.80;99.90;;;;;;5034126;28;20035;-84
2022/01/07 02:18:04;;;;;;;10.23;4.30;;;3.80;99.90;;;;;;4999965;28;20577;-84
2022/01/07 02:20:30;;;;;;;14.38;5.50;;;3.80;99.90;;;;;;5016358;28;20029;-84
2022/01/07 02:22:57;;;;;;;14.65;4.45;;;3.80;99.90;;;;;;4999813;28;20037;-83
2022/01/07 02:25:23;;;;;;;9.45;4.55;;;3.80;99.90;;;;;;5000321;28;20112;-84
2022/01/07 02:32:42;;;;;;;14.15;4.57;;;3.90;99.90;;;;;;5033858;28;20048;-84
2022/01/07 02:39:04;;;;;;;9.18;3.67;;;3.90;99.90;;;;;;5034125;28;20026;-84
2022/01/07 02:45:13;;;;;;;12.52;4.70;;;3.90;99.90;;;;;;5033797;28;20021;-84
2022/01/07 02:51:06;;;;;;;9.68;3.20;;;4.00;99.90;;;;;;5043373;28;20044;-83
2022/01/07 02:56:56;;;;;;;10.35;3.65;;;4.00;99.90;;;;;;5051969;28;20028;-83
2022/01/07 02:59:22;;;;;;;9.13;3.63;;;3.90;99.90;;;;;;5032395;28;20022;-84
2022/01/07 03:01:48;;;;;;;12.68;3.53;;;3.90;99.90;;;;;;5032518;28;20037;-84
2022/01/07 03:04:14;;;;;;;11.90;4.35;;;4.00;99.90;;;;;;5048192;28;20462;-84
2022/01/07 03:06:41;;;;;;;12.52;3.75;;;4.00;99.90;;;;;;5004542;28;20032;-84
2022/01/07 03:09:08;;;;;;;8.13;3.10;;;4.00;99.90;;;;;;5034722;28;20075;-84
2022/01/07 03:11:34;;;;;;;9.70;3.40;;;4.00;99.90;;;;;;5033918;28;20063;-84
2022/01/07 03:14:00;;;;;;;10.18;3.58;;;4.00;99.90;;;;;;5015533;28;20017;-84
2022/01/07 03:16:26;;;;;;;12.35;3.45;;;4.00;99.90;;;;;;4999565;28;20052;-84
2022/01/07 03:18:52;;;;;;;10.55;3.50;;;4.00;99.90;;;;;;4999584;28;20030;-83
2022/01/07 03:24:44;;;;;;;11.95;3.55;;;4.00;99.90;;;;;;5033486;28;20076;-84
2022/01/07 03:31:07;;;;;;;13.65;3.90;;;4.00;99.90;;;;;;5033266;28;20044;-83
2022/01/07 03:33:32;;;;;;;10.77;3.53;;;4.00;99.90;;;;;;5015983;28;20513;-83
2022/01/07 03:35:58;;;;;;;12.15;3.75;;;4.00;99.90;;;;;;5015582;28;20061;-84
2022/01/07 03:41:46;;;;;;;11.32;4.05;;;4.00;99.90;;;;;;5033154;28;20024;-84
2022/01/07 03:44:11;;;;;;;9.77;3.03;;;4.00;99.90;;;;;;5032786;28;20116;-84
2022/01/07 03:46:37;;;;;;;14.48;4.35;;;4.00;99.90;;;;;;5000089;28;20446;-84
2022/01/07 03:49:03;;;;;;;11.07;3.75;;;4.00;99.90;;;;;;5016109;28;20033;-84
2022/01/07 04:01:48;;;;;;;14.48;3.70;;;3.90;99.90;;;;;;5037908;28;20029;-83
2022/01/07 04:04:13;;;;;;;10.38;3.92;;;3.90;99.90;;;;;;5020504;28;20037;-84
2022/01/07 04:31:34;;;;;;;11.45;4.43;;;3.90;99.90;;;;;;5031799;28;20055;-85
2022/01/07 04:40:53;;;;;;;10.60;3.42;;;3.80;99.90;;;;;;5014923;28;20037;-85
2022/01/07 04:51:00;;;;;;;9.65;4.35;;;3.70;99.90;;;;;;5014493;28;20041;-85
2022/01/07 04:53:26;;;;;;;11.90;3.90;;;3.70;99.90;;;;;;4998090;28;20029;-85
2022/01/07 04:55:53;;;;;;;12.48;5.30;;;3.70;99.90;;;;;;5015629;28;20048;-84
2022/01/07 04:58:22;;;;;;;10.05;4.45;;;3.60;99.90;;;;;;4997783;28;20022;-85
2022/01/07 05:04:17;;;;;;;10.32;4.15;;;3.70;99.90;;;;;;5015419;28;20076;-85
2022/01/07 05:06:47;;;;;;;10.38;4.57;;;3.70;99.90;;;;;;4998041;28;20063;-85
2022/01/07 05:09:16;;;;;;;7.65;4.10;;;3.70;99.90;;;;;;4998270;28;20080;-84
2022/01/07 05:12:21;;;;;;;8.27;4.00;;;3.70;99.90;;;;;;4982327;28;20041;-84
2022/01/07 05:18:37;;;;;;;8.15;3.50;;;3.80;99.90;;;;;;5015021;28;20098;-85
2022/01/07 05:31:48;;;;;;;8.95;4.22;;;3.80;99.90;;;;;;5013776;28;20045;-84
2022/01/07 05:34:13;;;;;;;7.90;4.20;;;3.90;99.90;;;;;;4997951;28;20046;-84
2022/01/07 05:36:39;;;;;;;9.23;4.93;;;3.90;99.90;;;;;;4997756;28;20045;-85
2022/01/07 05:39:36;;;;;;;10.02;4.65;;;3.90;99.90;;;;;;4981218;28;20054;-84
2022/01/07 05:42:02;;;;;;;10.80;4.15;;;3.90;99.90;;;;;;4997857;28;20018;-85
2022/01/07 05:44:28;;;;;;;10.18;4.95;;;3.90;99.90;;;;;;4981033;28;20033;-84
2022/01/07 06:01:04;;;;;;;9.18;4.88;;;4.20;99.90;;;;;;5013177;28;20084;-85
2022/01/07 06:03:30;;;;;;;10.95;5.60;;;4.20;99.90;;;;;;4980939;28;20030;-85
2022/01/07 06:05:56;;;;;;;10.15;4.78;;;4.20;99.90;;;;;;4997034;28;20088;-84
2022/01/07 06:19:20;;;;;;;10.57;5.40;;;4.30;99.90;;;;;;5012679;28;20030;-84
2022/01/07 06:29:26;;;;;;;10.60;6.40;;;4.40;99.90;;;;;;5013542;28;20050;-84
2022/01/07 06:31:51;;;;;;;19.40;8.20;;;4.40;99.90;;;;;;4997722;28;20092;-84
2022/01/07 06:44:51;;;;;;;12.98;7.03;;;4.50;99.90;;;;;;5049687;28;20052;-84
2022/01/07 06:50:47;;;;;;;11.60;6.07;;;4.60;99.90;;;;;;5042081;28;20502;-84
2022/01/07 06:56:35;;;;;;;14.30;6.90;;;4.60;99.90;;;;;;5034348;28;20067;-84
2022/01/07 06:59:00;;;;;;;15.27;8.27;;;4.70;99.90;;;;;;5000184;28;20022;-84
2022/01/07 07:01:27;;;;;;;15.25;7.47;;;4.70;99.90;;;;;;5016653;28;20041;-84
2022/01/07 07:03:53;;;;;;;16.77;8.30;;;4.60;99.90;;;;;;5000707;28;20029;-85
2022/01/07 07:06:24;;;;;;;13.38;7.65;;;4.80;99.90;;;;;;5001114;28;20033;-85
2022/01/07 07:19:33;;;;;;;16.40;8.57;;;4.80;99.90;;;;;;5033807;28;20041;-84
2022/01/07 07:26:09;;;;;;;17.10;8.05;;;4.90;99.90;;;;;;5033199;28;20088;-84
2022/01/07 07:32:07;;;;;;;18.65;9.57;;;4.90;99.90;;;;;;5037025;28;20032;-84
2022/01/07 07:47:14;;;;;;;14.50;7.95;;;5.00;99.90;;;;;;5037507;28;20083;-84
2022/01/07 07:49:39;;;;;;;15.25;8.45;;;5.00;99.90;;;;;;5018578;28;20025;-84
2022/01/07 07:52:05;;;;;;;18.40;7.65;;;5.00;99.90;;;;;;5018937;28;20043;-84
2022/01/07 07:54:31;;;;;;;14.80;8.30;;;5.00;99.90;;;;;;5019883;28;20095;-84
2022/01/07 07:56:58;;;;;;;20.42;8.90;;;5.00;99.90;;;;;;5002803;28;20033;-85
2022/01/07 07:59:25;;;;;;;23.63;9.45;;;5.10;99.90;;;;;;5019642;28;20459;-84
2022/01/07 08:02:22;;;;;;;21.60;8.55;;;5.10;99.90;;;;;;5002486;28;20124;-85
2022/01/07 08:08:27;;;;;;;24.67;9.98;;;5.20;99.90;;;;;;5037007;28;20488;-85
2022/01/07 08:17:00;;;;;;;16.42;7.95;;;5.20;99.90;;;;;;5027645;28;20045;-84
2022/01/07 08:19:25;;;;;;;19.10;8.23;;;5.20;99.90;;;;;;5040312;28;20033;-84
2022/01/07 08:21:51;;;;;;;19.95;8.77;;;5.20;99.90;;;;;;5037495;28;20029;-84
2022/01/07 08:24:17;;;;;;;21.60;9.25;;;5.20;99.90;;;;;;5002218;28;20394;-85
2022/01/07 08:26:43;;;;;;;16.17;8.57;;;5.20;99.90;;;;;;5002269;28;20431;-87
2022/01/07 08:29:11;;;;;;;14.82;8.80;;;5.20;99.90;;;;;;5002037;28;20040;-85
2022/01/07 08:36:49;;;;;;;19.30;8.43;;;5.20;99.90;;;;;;5007328;28;20033;-84
2022/01/07 08:39:15;;;;;;;15.23;8.32;;;5.30;99.90;;;;;;5001604;28;20038;-85
2022/01/07 08:41:42;;;;;;;17.60;9.25;;;5.30;99.90;;;;;;4982126;28;20050;-85
2022/01/07 08:44:09;;;;;;;18.17;9.70;;;5.30;99.90;;;;;;5017986;28;20037;-85
2022/01/07 08:46:35;;;;;;;18.70;9.18;;;5.30;99.90;;;;;;5036385;28;20030;-85
2022/01/07 08:49:03;;;;;;;15.85;8.02;;;5.30;99.90;;;;;;5035050;28;20501;-84
2022/01/07 08:51:29;;;;;;;16.73;8.73;;;5.40;99.90;;;;;;5001546;28;20037;-85
2022/01/07 08:53:55;;;;;;;15.13;8.40;;;5.40;99.90;;;;;;5017606;28;20029;-85
2022/01/07 08:56:25;;;;;;;16.30;8.63;;;5.40;99.90;;;;;;5017715;28;20124;-84
2022/01/07 08:58:52;;;;;;;17.92;8.23;;;5.40;99.90;;;;;;5001575;28;20026;-85
2022/01/07 09:01:19;;;;;;;16.83;8.65;;;5.40;99.90;;;;;;5035369;28;20032;-84
2022/01/07 09:03:44;;;;;;;17.17;9.27;;;5.50;99.90;;;;;;5000328;28;20030;-84
2022/01/07 09:06:10;;;;;;;15.70;8.15;;;5.50;99.90;;;;;;5017401;28;20026;-84
2022/01/07 09:08:36;;;;;;;15.43;8.57;;;5.50;99.90;;;;;;5017388;28;20202;-85
2022/01/07 09:11:01;;;;;;;15.70;8.48;;;5.50;99.90;;;;;;5035152;28;20343;-84
2022/01/07 09:13:27;;;;;;;16.13;8.38;;;5.60;99.90;;;;;;4984972;28;20079;-85
2022/01/07 09:15:54;;;;;;;15.20;8.90;;;5.60;99.90;;;;;;5017772;28;20466;-85
2022/01/07 09:18:21;;;;;;;17.38;8.13;;;5.60;99.90;;;;;;5001540;28;20029;-85
2022/01/07 09:20:47;;;;;;;13.57;7.53;;;5.60;99.90;;;;;;5017287;28;20037;-85
2022/01/07 09:23:14;;;;;;;17.55;8.45;;;5.70;99.90;;;;;;5017302;28;20057;-86
2022/01/07 09:25:40;;;;;;;15.45;8.52;;;5.70;99.90;;;;;;5000968;28;20466;-85
2022/01/07 09:28:07;;;;;;;13.07;7.97;;;5.70;99.90;;;;;;5018708;28;20030;-83
2022/01/07 09:30:34;;;;;;;12.98;7.68;;;5.70;99.90;;;;;;5035440;28;20037;-85
2022/01/07 09:33:00;;;;;;;15.75;8.27;;;5.70;99.90;;;;;;5034372;28;20029;-85
2022/01/07 09:35:27;;;;;;;16.23;9.18;;;5.70;99.90;;;;;;5000023;28;20386;-85
2022/01/07 09:37:53;;;;;;;12.93;8.40;;;5.80;99.90;;;;;;5017194;28;20422;-85
2022/01/07 09:40:19;;;;;;;15.15;8.20;;;5.80;99.90;;;;;;5000937;28;20038;-85
2022/01/07 09:46:48;;;;;;;15.68;8.13;;;5.80;99.90;;;;;;5033515;28;20064;-85
2022/01/07 09:49:14;;;;;;;16.77;8.38;;;5.80;99.90;;;;;;4983886;28;20033;-85
2022/01/07 09:58:38;;;;;;;12.77;7.22;;;5.80;99.90;;;;;;5034552;28;20029;-85
2022/01/07 10:04:51;;;;;;;14.75;7.35;;;5.90;99.90;;;;;;5034480;28;20112;-84
2022/01/07 10:11:08;;;;;;;18.00;7.88;;;5.90;99.90;;;;;;5034154;28;20032;-84
2022/01/07 10:13:34;;;;;;;18.27;7.90;;;6.00;99.90;;;;;;5017315;28;20025;-86
2022/01/07 10:37:25;;;;;;;15.45;7.75;;;6.20;99.90;;;;;;5000731;28;20030;-84
2022/01/07 10:50:43;;;;;;;14.00;7.68;;;6.30;99.90;;;;;;5017183;28;20121;-85
2022/01/07 11:31:45;;;;;;;11.82;5.22;;;6.70;99.90;;;;;;5037175;28;20358;-85
2022/01/07 11:45:23;;;;;;;9.65;5.13;;;6.90;99.90;;;;;;5036803;28;20057;-85
2022/01/07 11:51:56;;;;;;;13.30;4.15;;;7.10;99.90;;;;;;5037623;28;20180;-84
2022/01/07 11:58:21;;;;;;;12.15;4.30;;;7.30;99.90;;;;;;5036653;28;20108;-85
2022/01/07 12:04:29;;;;;;;8.18;3.78;;;7.30;99.90;;;;;;5036448;28;20422;-85
2022/01/07 12:06:57;;;;;;;9.00;4.45;;;7.30;99.90;;;;;;5018236;28;20029;-85
2022/01/07 12:09:35;;;;;;;9.80;4.25;;;7.30;99.90;;;;;;5036291;28;20041;-83
2022/01/07 12:16:16;;;;;;;10.90;3.83;;;7.30;99.90;;;;;;5034747;28;20025;-83
2022/01/07 12:22:11;;;;;;;11.35;3.92;;;7.30;99.90;;;;;;5036387;28;20027;-84
2022/01/07 12:34:52;;;;;;;10.13;3.13;;;7.40;99.90;;;;;;5034256;28;20398;-83
2022/01/07 12:37:20;;;;;;;12.30;3.95;;;7.40;99.90;;;;;;5001749;28;20033;-84
2022/01/07 12:39:49;;;;;;;10.98;4.35;;;7.40;99.90;;;;;;5022774;28;20033;-84
2022/01/07 12:42:15;;;;;;;10.23;3.60;;;7.50;99.90;;;;;;5017722;28;20021;-85
2022/01/07 12:44:46;;;;;;;11.70;3.88;;;7.50;99.90;;;;;;5017938;28;20025;-84
2022/01/07 12:47:17;;;;;;;12.88;3.90;;;7.50;99.90;;;;;;5018174;28;20425;-84
2022/01/07 12:53:09;;;;;;;10.43;4.65;;;7.50;99.90;;;;;;5035657;28;20052;-83
2022/01/07 13:02:29;;;;;;;17.05;5.88;;;7.60;99.90;;;;;;5034836;28;20036;-84
2022/01/07 13:08:19;;;;;;;10.10;4.07;;;7.50;99.90;;;;;;5000859;28;20036;-84
2022/01/07 13:10:50;;;;;;;15.25;4.05;;;7.50;99.90;;;;;;5017276;28;20469;-84
2022/01/07 13:13:30;;;;;;;12.40;5.70;;;7.50;99.90;;;;;;5001543;28;20037;-91
2022/01/07 14:18:14;;;;;;;13.30;5.90;;;7.60;99.90;;;;;;5051938;28;20033;-84
2022/01/07 14:25:35;;;;;;;11.45;4.30;;;7.50;99.90;;;;;;5034728;28;20076;-84
2022/01/07 14:31:52;;;;;;;3.13;0.88;;;7.60;99.90;;;;;;5034136;28;20052;-85
2022/01/07 14:37:52;;;;;;;2.90;0.70;;;7.40;99.90;;;;;;5033720;28;20025;-84
2022/01/07 14:40:18;;;;;;;6.35;1.08;;;7.30;99.90;;;;;;5000318;28;20072;-86
2022/01/07 14:42:44;;;;;;;5.95;1.38;;;7.30;99.90;;;;;;5033952;28;20021;-84
2022/01/07 14:45:10;;;;;;;3.65;0.63;;;7.20;99.90;;;;;;4999802;28;20124;-84
2022/01/07 14:47:37;;;;;;;3.85;0.82;;;7.20;99.90;;;;;;4999715;28;20148;-84
2022/01/07 14:50:03;;;;;;;3.78;1.00;;;7.20;99.90;;;;;;5015764;28;20545;-84
2022/01/07 14:52:29;;;;;;;4.30;1.10;;;7.10;99.90;;;;;;5015795;28;20032;-85
2022/01/07 14:54:55;;;;;;;5.10;1.20;;;7.10;99.90;;;;;;4999835;28;20034;-84
2022/01/07 14:57:21;;;;;;;2.58;0.80;;;6.90;99.90;;;;;;4999785;28;20466;-84
2022/01/07 14:59:48;;;;;;;8.15;1.20;;;7.00;99.90;;;;;;5016040;28;20092;-85
2022/01/07 15:02:14;;;;;;;4.63;0.98;;;6.90;99.90;;;;;;5015846;28;20026;-84
2022/01/07 15:04:41;;;;;;;5.65;0.90;;;6.80;99.90;;;;;;5015686;28;20075;-84
2022/01/07 15:07:07;;;;;;;7.30;1.20;;;6.80;99.90;;;;;;5016063;28;20037;-84
2022/01/07 15:09:33;;;;;;;4.10;1.27;;;6.70;99.90;;;;;;5015857;28;20040;-84
2022/01/07 15:11:59;;;;;;;6.18;1.15;;;6.70;99.90;;;;;;4999666;28;20120;-84
2022/01/07 15:14:24;;;;;;;6.90;1.67;;;6.60;99.90;;;;;;4999498;28;20079;-84
2022/01/07 15:16:50;;;;;;;3.80;1.08;;;6.50;99.90;;;;;;5015604;28;20075;-85
2022/01/07 15:19:18;;;;;;;3.70;0.93;;;6.40;99.90;;;;;;4999261;28;20053;-85
2022/01/07 15:21:45;;;;;;;5.70;1.40;;;6.40;99.90;;;;;;5033111;28;20025;-84
2022/01/07 15:24:12;;;;;;;5.82;0.95;;;6.40;99.90;;;;;;4999918;28;20033;-85
2022/01/07 15:26:39;;;;;;;5.53;0.88;;;6.30;99.90;;;;;;5015344;28;20371;-84
2022/01/07 15:29:07;;;;;;;3.78;0.90;;;6.30;99.90;;;;;;4999809;28;20029;-85
2022/01/07 15:31:33;;;;;;;2.38;0.68;;;6.30;99.90;;;;;;5015166;28;20080;-85
2022/01/07 15:34:00;;;;;;;3.83;1.30;;;6.20;99.90;;;;;;5015345;28;20048;-84
2022/01/07 15:36:28;;;;;;;3.95;0.85;;;6.20;99.90;;;;;;5015744;28;20421;-85
2022/01/07 15:38:55;;;;;;;0.98;0.40;;;6.20;99.90;;;;;;5033427;28;20025;-84
2022/01/07 15:41:21;;;;;;;8.23;1.20;;;6.10;99.90;;;;;;4999213;28;20030;-86
2022/01/07 15:43:47;;;;;;;4.43;1.08;;;6.10;99.90;;;;;;4999014;28;20064;-85
2022/01/07 15:46:12;;;;;;;7.45;0.90;;;6.00;99.90;;;;;;5032742;28;20061;-85
2022/01/07 15:48:38;;;;;;;5.38;1.05;;;6.00;99.90;;;;;;5015312;28;20044;-85
2022/01/07 15:51:04;;;;;;;6.28;1.17;;;5.90;99.90;;;;;;5018747;28;20435;-85
2022/01/07 15:53:30;;;;;;;4.45;1.30;;;5.90;99.90;;;;;;5018513;28;20057;-85
2022/01/07 15:55:57;;;;;;;7.97;1.13;;;5.90;99.90;;;;;;5018823;28;20116;-85
2022/01/07 15:58:23;;;;;;;2.58;1.30;;;5.80;99.90;;;;;;4986341;28;20040;-87
2022/01/07 16:00:49;;;;;;;5.25;1.38;;;5.80;99.90;;;;;;5018724;28;20037;-85
2022/01/07 16:03:15;;;;;;;4.45;1.13;;;5.70;99.90;;;;;;5002307;28;20105;-85
2022/01/07 16:05:41;;;;;;;5.32;1.73;;;5.70;99.90;;;;;;5018370;28;20545;-84
2022/01/07 16:08:07;;;;;;;5.95;1.65;;;5.70;99.90;;;;;;5018019;28;20120;-86
2022/01/07 16:10:32;;;;;;;5.65;1.38;;;5.70;99.90;;;;;;5018403;28;20235;-85
2022/01/07 16:12:58;;;;;;;3.47;1.20;;;5.70;99.90;;;;;;5018307;28;20031;-84
2022/01/07 16:15:24;;;;;;;3.38;0.75;;;5.70;99.90;;;;;;5018465;28;20202;-85
2022/01/07 16:17:49;;;;;;;4.57;1.02;;;5.70;99.90;;;;;;5018401;28;20034;-84
2022/01/07 16:20:15;;;;;;;7.78;1.67;;;5.60;99.90;;;;;;5018161;28;20478;-85
2022/01/07 16:22:41;;;;;;;6.65;1.63;;;5.60;99.90;;;;;;5002626;28;20458;-85
2022/01/07 16:25:07;;;;;;;13.32;2.30;;;5.60;99.90;;;;;;5002355;28;20045;-83
2022/01/07 16:27:33;;;;;;;4.32;1.17;;;5.50;99.90;;;;;;5038592;28;20545;-83
2022/01/07 16:29:59;;;;;;;6.68;1.38;;;5.50;99.90;;;;;;5038954;28;20470;-83
2022/01/07 16:32:25;;;;;;;4.80;1.08;;;5.40;99.90;;;;;;5022278;28;20024;-85
2022/01/07 16:34:51;;;;;;;4.65;1.38;;;5.20;99.90;;;;;;5005701;28;20033;-84
2022/01/07 16:37:17;;;;;;;4.30;1.20;;;5.20;99.90;;;;;;5002596;28;20032;-83
2022/01/07 16:39:43;;;;;;;7.20;1.42;;;5.10;99.90;;;;;;4985256;28;20087;-83
2022/01/07 16:42:09;;;;;;;4.82;1.60;;;5.10;99.90;;;;;;5035993;28;20024;-83
2022/01/07 16:44:35;;;;;;;9.02;2.28;;;5.00;99.90;;;;;;5001308;28;20026;-83
2022/01/07 16:47:02;;;;;;;6.13;2.42;;;4.90;99.90;;;;;;5017686;28;20035;-83
2022/01/07 16:49:28;;;;;;;4.97;1.90;;;4.90;99.90;;;;;;5018066;28;20033;-85
2022/01/07 16:51:55;;;;;;;6.43;1.98;;;4.90;99.90;;;;;;5018003;28;20024;-84
2022/01/07 16:54:21;;;;;;;5.72;2.00;;;4.90;99.90;;;;;;5017568;28;20049;-84
2022/01/07 16:56:47;;;;;;;7.68;2.17;;;4.90;99.90;;;;;;5017934;28;20027;-84
2022/01/07 16:59:13;;;;;;;7.35;2.20;;;4.90;99.90;;;;;;5017159;28;20060;-84
2022/01/07 17:01:38;;;;;;;11.50;2.33;;;4.90;99.90;;;;;;5016566;28;20022;-84
2022/01/07 17:04:05;;;;;;;5.88;2.45;;;5.00;99.90;;;;;;5017635;28;20533;-85
2022/01/07 17:06:30;;;;;;;9.88;2.10;;;5.00;99.90;;;;;;5017647;28;20021;-85
2022/01/07 17:08:56;;;;;;;5.03;1.90;;;5.00;99.90;;;;;;5017543;28;20021;-85
2022/01/07 17:11:22;;;;;;;5.85;2.10;;;5.00;99.90;;;;;;5017542;28;20056;-85
2022/01/07 17:13:47;;;;;;;9.20;1.98;;;5.00;99.90;;;;;;5017445;28;20108;-84
2022/01/07 17:16:13;;;;;;;6.38;2.15;;;5.00;99.90;;;;;;5001075;28;20078;-85
2022/01/07 17:18:39;;;;;;;6.22;1.92;;;5.00;99.90;;;;;;5017251;28;20021;-84
2022/01/07 17:21:05;;;;;;;4.47;1.83;;;5.00;99.90;;;;;;5017459;28;20026;-84
2022/01/07 17:23:30;;;;;;;5.22;1.90;;;5.00;99.90;;;;;;5017483;28;20022;-84
2022/01/07 17:25:56;;;;;;;3.67;1.60;;;5.10;99.90;;;;;;4984465;28;20046;-85
2022/01/07 17:28:22;;;;;;;6.68;1.92;;;5.00;99.90;;;;;;5017014;28;20037;-83
2022/01/07 17:30:47;;;;;;;4.35;1.70;;;5.00;99.90;;;;;;5017393;28;20488;-86
2022/01/07 17:33:13;;;;;;;2.85;1.55;;;5.00;99.90;;;;;;5017896;28;20026;-84
2022/01/07 17:35:39;;;;;;;4.15;2.28;;;5.00;99.90;;;;;;5000944;28;20373;-84
2022/01/07 17:38:05;;;;;;;4.55;2.00;;;5.00;99.90;;;;;;5000524;28;20470;-86
2022/01/07 17:40:30;;;;;;;2.92;1.63;;;5.00;99.90;;;;;;5016970;28;20037;-84
2022/01/07 17:42:57;;;;;;;4.28;1.85;;;5.00;99.90;;;;;;5000817;28;20084;-84
2022/01/07 17:45:25;;;;;;;5.70;1.80;;;5.00;99.90;;;;;;5000261;28;20033;-85
2022/01/07 17:47:50;;;;;;;6.63;2.67;;;5.00;99.90;;;;;;5000729;28;20029;-83
2022/01/07 17:50:17;;;;;;;3.83;1.60;;;5.00;99.90;;;;;;5035554;28;20037;-86
2022/01/07 17:52:42;;;;;;;5.80;1.75;;;5.00;99.90;;;;;;5030340;28;20064;-84
2022/01/07 17:55:09;;;;;;;3.80;1.50;;;4.90;99.90;;;;;;5035903;28;20033;-85
2022/01/07 17:57:40;;;;;;;7.07;1.92;;;5.00;99.90;;;;;;5021044;28;20029;-86
2022/01/07 18:00:08;;;;;;;4.80;1.77;;;4.90;99.90;;;;;;5034714;28;20048;-86
2022/01/07 18:02:33;;;;;;;4.25;1.70;;;4.90;99.90;;;;;;5032257;28;20078;-85
2022/01/07 18:05:02;;;;;;;4.97;2.53;;;4.80;99.90;;;;;;5030162;28;20041;-84
2022/01/07 18:07:28;;;;;;;3.58;1.50;;;4.90;99.90;;;;;;5007857;28;20036;-86
2022/01/07 18:09:54;;;;;;;5.43;1.60;;;4.80;99.90;;;;;;5035804;28;20042;-85
2022/01/07 18:12:19;;;;;;;7.10;2.50;;;4.80;99.90;;;;;;5016532;28;20030;-86
2022/01/07 18:14:45;;;;;;;4.03;1.70;;;4.80;99.90;;;;;;5033639;28;20052;-85
2022/01/07 18:17:11;;;;;;;6.40;1.90;;;4.80;99.90;;;;;;5016516;28;20030;-86
2022/01/07 18:19:37;;;;;;;4.32;1.80;;;4.80;99.90;;;;;;5016619;28;20441;-86
2022/01/07 18:22:02;;;;;;;6.00;1.88;;;4.70;99.90;;;;;;5016455;28;20454;-86
2022/01/07 18:24:28;;;;;;;4.30;2.03;;;4.70;99.90;;;;;;5016445;28;20489;-87
2022/01/07 18:26:54;;;;;;;3.75;1.70;;;4.70;99.90;;;;;;5034081;28;20021;-84
2022/01/07 18:29:20;;;;;;;4.95;1.52;;;4.70;99.90;;;;;;5016152;28;20037;-85
2022/01/07 18:31:45;;;;;;;3.78;1.48;;;4.60;99.90;;;;;;5016406;28;20492;-87
2022/01/07 18:34:11;;;;;;;5.57;1.50;;;4.60;99.90;;;;;;5017770;28;20021;-84
2022/01/07 18:36:39;;;;;;;11.32;2.88;;;4.60;99.90;;;;;;4999993;28;20026;-86
2022/01/07 18:39:07;;;;;;;5.15;2.10;;;4.50;99.90;;;;;;5000171;28;20121;-85
2022/01/07 18:41:32;;;;;;;8.77;2.40;;;4.50;99.90;;;;;;5016385;28;20033;-85
2022/01/07 18:43:58;;;;;;;4.97;2.22;;;4.60;99.90;;;;;;5033742;28;20026;-84
2022/01/07 18:46:24;;;;;;;6.60;2.90;;;4.50;99.90;;;;;;5033767;28;20030;-85
2022/01/07 18:48:50;;;;;;;4.72;2.50;;;4.50;99.90;;;;;;5033641;28;20079;-85
2022/01/07 18:51:16;;;;;;;7.10;2.97;;;4.50;99.90;;;;;;5016264;28;20200;-85
2022/01/07 18:57:50;;;;;;;7.95;3.63;;;4.40;99.90;;;;;;5031269;28;20107;-83
2022/01/07 19:00:16;;;;;;;6.47;3.65;;;4.40;99.90;;;;;;4995867;28;20038;-84
2022/01/07 19:02:43;;;;;;;7.05;4.28;;;4.40;99.90;;;;;;4964738;28;20387;-84
2022/01/07 19:06:04;;;;;;;10.65;4.80;;;4.40;99.90;;;;;;4980707;28;20041;-84
2022/01/07 19:25:39;;;;;;;8.27;5.07;;;4.20;99.90;;;;;;5017225;28;20504;-85
2022/01/07 19:28:05;;;;;;;8.55;5.30;;;4.20;99.90;;;;;;4999613;28;20053;-84
2022/01/07 19:30:30;;;;;;;9.85;5.28;;;4.20;99.90;;;;;;4984285;28;20038;-84
2022/01/07 19:47:31;;;;;;;10.63;5.25;;;4.10;99.90;;;;;;5017691;28;20105;-85
2022/01/07 20:00:15;;;;;;;9.02;4.90;;;4.10;99.90;;;;;;5045730;28;20055;-85
2022/01/07 20:02:45;;;;;;;11.50;6.00;;;4.10;99.90;;;;;;5002406;28;20045;-85
2022/01/07 20:05:12;;;;;;;11.32;5.03;;;4.10;99.90;;;;;;5002855;28;20045;-84
2022/01/07 20:07:38;;;;;;;9.38;5.10;;;4.10;99.90;;;;;;5036411;28;20030;-84
2022/01/07 20:10:06;;;;;;;10.85;4.47;;;4.10;99.90;;;;;;5018685;28;20124;-84
2022/01/07 20:12:32;;;;;;;11.85;5.20;;;4.00;99.90;;;;;;5036424;28;20109;-84
2022/01/07 20:14:58;;;;;;;9.88;4.88;;;4.10;99.90;;;;;;4986529;28;20038;-84
2022/01/07 20:17:23;;;;;;;14.45;4.63;;;4.10;99.90;;;;;;5018670;28;20032;-85
2022/01/07 20:19:49;;;;;;;11.20;4.18;;;4.10;99.90;;;;;;5018539;28;20473;-85
2022/01/07 20:22:15;;;;;;;14.77;4.72;;;4.00;99.90;;;;;;5036468;28;20029;-85
2022/01/07 20:24:41;;;;;;;11.07;4.45;;;4.10;99.90;;;;;;5037342;28;20030;-87
2022/01/07 20:27:06;;;;;;;8.43;4.45;;;4.10;99.90;;;;;;5021119;28;20056;-83
2022/01/07 20:29:32;;;;;;;12.82;4.65;;;4.10;99.90;;;;;;5024716;28;20416;-84
2022/01/07 20:31:58;;;;;;;8.57;4.53;;;4.00;99.90;;;;;;5008064;28;20056;-83
2022/01/07 20:34:26;;;;;;;9.68;4.88;;;4.10;99.90;;;;;;5036828;28;20068;-84
2022/01/07 20:36:51;;;;;;;8.73;5.15;;;4.00;99.90;;;;;;5035213;28;20076;-84
2022/01/07 20:39:17;;;;;;;13.07;5.65;;;4.00;99.90;;;;;;5018379;28;20037;-84
2022/01/07 20:41:43;;;;;;;9.85;5.47;;;4.10;99.90;;;;;;5001901;28;20030;-84
2022/01/07 20:44:14;;;;;;;12.82;6.13;;;4.00;99.90;;;;;;5018332;28;20079;-84
2022/01/07 20:50:04;;;;;;;9.68;4.65;;;4.00;99.90;;;;;;5035629;28;20040;-84
2022/01/07 20:52:30;;;;;;;11.55;5.47;;;4.00;99.90;;;;;;5035369;28;20033;-84
2022/01/07 20:54:56;;;;;;;9.63;5.30;;;4.00;99.90;;;;;;5001653;28;20107;-84
2022/01/07 20:57:22;;;;;;;8.70;5.10;;;4.00;99.90;;;;;;5017575;28;20458;-84
2022/01/07 20:59:56;;;;;;;12.70;5.60;;;4.00;99.90;;;;;;5017794;28;20026;-86
2022/01/07 21:02:23;;;;;;;13.68;4.72;;;4.00;99.90;;;;;;5001712;28;20056;-84
2022/01/07 21:04:48;;;;;;;10.93;5.53;;;4.00;99.90;;;;;;5017761;28;20092;-85
2022/01/07 21:07:14;;;;;;;13.40;5.45;;;4.00;99.90;;;;;;5001453;28;20458;-85
2022/01/07 21:09:40;;;;;;;10.32;6.20;;;4.00;99.90;;;;;;5017964;28;20034;-84
2022/01/07 21:12:06;;;;;;;10.95;5.68;;;4.00;99.90;;;;;;5001452;28;20171;-85
2022/01/07 21:14:31;;;;;;;11.88;5.75;;;4.00;99.90;;;;;;5000935;28;20025;-85
2022/01/07 21:16:57;;;;;;;11.80;6.30;;;4.00;99.90;;;;;;5018214;28;20041;-85
2022/01/07 21:20:21;;;;;;;14.30;7.15;;;4.00;99.90;;;;;;5002618;28;20060;-84
2022/01/07 21:26:54;;;;;;;12.07;6.53;;;4.00;99.90;;;;;;5035254;28;20024;-86
2022/01/07 21:32:41;;;;;;;13.18;6.30;;;4.00;99.90;;;;;;5036132;28;20032;-84
2022/01/07 21:35:10;;;;;;;14.20;6.00;;;4.00;99.90;;;;;;5002826;28;20398;-84
2022/01/07 21:37:36;;;;;;;13.00;6.60;;;4.00;99.90;;;;;;5026852;28;20077;-82
2022/01/07 21:40:03;;;;;;;12.48;6.45;;;4.00;99.90;;;;;;5021030;28;20052;-85
2022/01/07 21:42:28;;;;;;;16.30;6.15;;;4.00;99.90;;;;;;5052828;28;20026;-84
2022/01/07 21:44:54;;;;;;;11.75;6.88;;;4.00;99.90;;;;;;4998811;28;20032;-82
2022/01/07 21:47:20;;;;;;;13.95;6.80;;;4.00;99.90;;;;;;5031940;28;20030;-85
2022/01/07 21:49:47;;;;;;;12.48;6.95;;;4.00;99.90;;;;;;5018290;28;20044;-85
2022/01/07 21:52:13;;;;;;;14.95;7.70;;;4.00;99.90;;;;;;5027699;28;20057;-86
2022/01/07 22:09:05;;;;;;;11.68;7.45;;;4.00;99.90;;;;;;5036204;28;20484;-86
2022/01/07 22:18:27;;;;;;;12.52;7.10;;;3.90;99.90;;;;;;5035286;28;20036;-86
2022/01/07 22:28:16;;;;;;;16.17;8.20;;;3.90;99.90;;;;;;5034392;28;20025;-86
2022/01/07 22:34:20;;;;;;;12.13;8.07;;;3.90;99.90;;;;;;5034347;28;20067;-86
2022/01/07 22:36:46;;;;;;;22.48;12.23;;;3.90;99.90;;;;;;5016675;28;20072;-88
2022/01/07 22:39:12;;;;;;;31.95;15.05;;;4.00;99.90;;;;;;5016601;28;20406;-87
2022/01/07 22:42:29;;;;;;;22.77;11.68;;;4.00;99.90;;;;;;5016813;28;20040;-87
2022/01/07 22:55:51;;;;;;;14.75;7.35;;;3.90;99.90;;;;;;5034506;28;20495;-88
2022/01/07 23:17:14;;;;;;;16.77;8.73;;;3.60;99.90;;;;;;5034752;28;20590;-87
2022/01/07 23:19:40;;;;;;;14.50;8.90;;;3.60;99.90;;;;;;4988140;28;20049;-88
2022/01/07 23:22:06;;;;;;;17.80;10.07;;;3.60;99.90;;;;;;5020097;28;20044;-87
2022/01/07 23:28:08;;;;;;;18.60;9.88;;;3.50;99.90;;;;;;5037404;28;20022;-87
2022/01/07 23:30:33;;;;;;;19.52;9.38;;;3.50;99.90;;;;;;4987061;28;20052;-87
2022/01/07 23:33:01;;;;;;;14.20;9.55;;;3.50;99.90;;;;;;5003693;28;20033;-86
2022/01/07 23:36:01;;;;;;;17.52;9.95;;;3.50;99.90;;;;;;5037406;28;20029;-86
2022/01/07 23:52:23;;;;;;;18.92;9.70;;;3.50;99.90;;;;;;5037558;28;20059;-87
